Time;durP1;ratioP1;P1;durP2;ratioP2;P2;SDS_P1;SDS_P2;PMS_P1;PMS_P2;Temp;Humidity;BMP_temperature;BMP_pressure;BME280_temperature;BME280_humidity;BME280_pressure;Samples;Min_cycle;Max_cycle;Signal;HPM_P1;HPM_P2
2022/10/07 00:00:49;;;;;;;1.40;1.40;;;;;;;;;;4948164;28;20228;-61
2022/10/07 00:03:15;;;;;;;1.30;1.30;;;;;;;;;;4952231;28;20291;-58
2022/10/07 00:05:41;;;;;;;1.30;1.30;;;;;;;;;;4955750;28;20217;-58
2022/10/07 00:08:07;;;;;;;1.30;1.30;;;;;;;;;;4959413;28;20226;-58
2022/10/07 00:10:36;;;;;;;1.40;1.40;;;;;;;;;;4933125;28;21324;-58
2022/10/07 00:13:02;;;;;;;1.47;1.47;;;;;;;;;;4955781;28;20230;-57
2022/10/07 00:15:28;;;;;;;1.43;1.43;;;;;;;;;;4965599;28;20947;-58
2022/10/07 00:17:54;;;;;;;1.43;1.43;;;;;;;;;;4951644;28;20239;-58
2022/10/07 00:20:20;;;;;;;1.30;1.30;;;;;;;;;;4964297;28;20233;-58
2022/10/07 00:22:46;;;;;;;1.70;1.70;;;;;;;;;;4965523;28;20321;-58
2022/10/07 00:25:12;;;;;;;1.90;1.80;;;;;;;;;;4971538;28;20264;-58
2022/10/07 00:27:37;;;;;;;2.20;2.10;;;;;;;;;;4969029;28;20228;-58
2022/10/07 00:30:04;;;;;;;1.20;1.20;;;;;;;;;;4973262;28;20233;-58
2022/10/07 00:32:29;;;;;;;1.40;1.40;;;;;;;;;;4970048;28;20234;-58
2022/10/07 00:34:55;;;;;;;1.30;1.30;;;;;;;;;;4976455;28;20233;-58
2022/10/07 00:37:21;;;;;;;1.30;1.30;;;;;;;;;;4968581;28;20229;-58
2022/10/07 00:39:47;;;;;;;1.40;1.40;;;;;;;;;;4969605;28;22138;-57
2022/10/07 00:42:13;;;;;;;1.30;1.30;;;;;;;;;;4973560;28;20837;-58
2022/10/07 00:44:43;;;;;;;1.40;1.40;;;;;;;;;;4965857;28;20773;-58
2022/10/07 00:47:24;;;;;;;1.30;1.30;;;;;;;;;;4965583;28;20610;-58
2022/10/07 00:50:06;;;;;;;1.30;1.30;;;;;;;;;;4956244;28;20324;-57
2022/10/07 00:52:33;;;;;;;1.30;1.30;;;;;;;;;;4959369;28;20288;-58
2022/10/07 00:54:59;;;;;;;1.40;1.40;;;;;;;;;;4935220;28;20231;-58
2022/10/07 00:57:26;;;;;;;1.30;1.30;;;;;;;;;;4960668;28;20621;-58
2022/10/07 00:59:54;;;;;;;1.50;1.50;;;;;;;;;;4934879;28;21050;-57
2022/10/07 01:04:57;;;;;;;1.77;1.70;;;;;;;;;;4980454;23;20379;-67
2022/10/07 01:07:23;;;;;;;1.50;1.50;;;;;;;;;;4884410;28;20665;-68
2022/10/07 01:09:50;;;;;;;1.50;1.50;;;;;;;;;;4890079;28;20247;-68
2022/10/07 01:12:18;;;;;;;1.40;1.40;;;;;;;;;;4914839;28;20232;-70
2022/10/07 01:14:47;;;;;;;1.50;1.50;;;;;;;;;;4917368;28;20715;-67
2022/10/07 01:17:19;;;;;;;1.60;1.60;;;;;;;;;;4915166;28;20236;-69
2022/10/07 01:19:51;;;;;;;1.87;1.77;;;;;;;;;;4924126;28;20298;-69
2022/10/07 01:22:21;;;;;;;1.50;1.50;;;;;;;;;;4918589;28;20944;-71
2022/10/07 01:25:06;;;;;;;1.30;1.30;;;;;;;;;;4910531;28;20593;-70
2022/10/07 01:27:31;;;;;;;1.60;1.60;;;;;;;;;;4917484;28;20326;-69
2022/10/07 01:30:00;;;;;;;1.50;1.50;;;;;;;;;;4933091;28;20322;-70
2022/10/07 01:32:26;;;;;;;1.60;1.60;;;;;;;;;;4909313;28;20236;-69
2022/10/07 01:34:53;;;;;;;2.67;2.57;;;;;;;;;;4922315;28;20312;-70
2022/10/07 01:37:18;;;;;;;1.90;1.80;;;;;;;;;;4922383;28;21041;-69
2022/10/07 01:39:51;;;;;;;1.60;1.60;;;;;;;;;;4918548;28;20229;-69
2022/10/07 01:42:17;;;;;;;1.57;1.57;;;;;;;;;;4922108;28;20388;-70
2022/10/07 01:44:44;;;;;;;1.60;1.60;;;;;;;;;;4927467;28;20729;-70
2022/10/07 01:47:09;;;;;;;1.63;1.63;;;;;;;;;;4923662;28;20770;-69
2022/10/07 01:49:36;;;;;;;1.50;1.50;;;;;;;;;;4909323;28;20227;-70
2022/10/07 01:52:06;;;;;;;1.50;1.50;;;;;;;;;;4921846;28;20239;-70
2022/10/07 01:54:39;;;;;;;1.80;1.70;;;;;;;;;;4916660;28;20306;-69
2022/10/07 01:57:21;;;;;;;1.80;1.70;;;;;;;;;;4921658;28;20697;-70
2022/10/07 01:59:56;;;;;;;1.50;1.50;;;;;;;;;;4919411;28;20228;-69
2022/10/07 02:02:23;;;;;;;1.60;1.60;;;;;;;;;;4925130;28;20234;-69
2022/10/07 02:04:56;;;;;;;1.70;1.70;;;;;;;;;;4895015;29;20704;-69
2022/10/07 02:07:28;;;;;;;1.60;1.60;;;;;;;;;;4903026;28;20878;-69
2022/10/07 02:09:57;;;;;;;1.67;1.67;;;;;;;;;;4894938;29;20233;-69
2022/10/07 02:12:33;;;;;;;1.70;1.70;;;;;;;;;;4895233;29;20237;-69
2022/10/07 02:15:05;;;;;;;1.60;1.60;;;;;;;;;;4898830;28;20231;-70
2022/10/07 02:17:31;;;;;;;1.53;1.53;;;;;;;;;;4891749;29;20229;-68
2022/10/07 02:19:58;;;;;;;1.80;1.70;;;;;;;;;;4912337;28;20266;-69
2022/10/07 02:22:25;;;;;;;1.60;1.60;;;;;;;;;;4896359;29;20571;-69
2022/10/07 02:24:53;;;;;;;1.60;1.60;;;;;;;;;;4884519;28;20701;-70
2022/10/07 02:27:20;;;;;;;1.80;1.70;;;;;;;;;;4885768;29;20230;-69
2022/10/07 02:29:46;;;;;;;1.50;1.50;;;;;;;;;;4901806;29;20236;-70
2022/10/07 02:32:17;;;;;;;0.80;0.80;;;;;;;;;;4891338;29;21306;-69
2022/10/07 02:34:44;;;;;;;0.87;0.87;;;;;;;;;;4887302;29;20225;-70
2022/10/07 02:37:19;;;;;;;1.00;1.00;;;;;;;;;;4898865;28;20691;-69
2022/10/07 02:39:45;;;;;;;0.80;0.80;;;;;;;;;;4891933;29;20235;-70
2022/10/07 02:42:14;;;;;;;0.80;0.80;;;;;;;;;;4890521;28;20222;-69
2022/10/07 02:44:47;;;;;;;1.00;1.00;;;;;;;;;;4895690;28;20231;-69
2022/10/07 02:47:22;;;;;;;0.90;0.90;;;;;;;;;;4889707;29;20226;-69
2022/10/07 02:49:52;;;;;;;0.90;0.90;;;;;;;;;;4881483;29;20250;-69
2022/10/07 02:52:18;;;;;;;0.90;0.90;;;;;;;;;;4899297;29;20229;-70
2022/10/07 02:54:45;;;;;;;1.27;1.27;;;;;;;;;;4880602;29;20243;-70
2022/10/07 02:57:12;;;;;;;1.40;1.40;;;;;;;;;;4885279;29;20231;-70
2022/10/07 02:59:38;;;;;;;1.50;1.50;;;;;;;;;;4894414;28;20686;-69
2022/10/07 03:02:04;;;;;;;1.40;1.40;;;;;;;;;;4895857;29;20284;-69
2022/10/07 03:04:30;;;;;;;1.70;1.70;;;;;;;;;;4895945;28;20314;-68
2022/10/07 03:06:57;;;;;;;1.50;1.50;;;;;;;;;;4897044;29;20224;-68
2022/10/07 03:09:23;;;;;;;1.70;1.70;;;;;;;;;;4890583;28;20226;-69
2022/10/07 03:11:49;;;;;;;1.70;1.70;;;;;;;;;;4898285;28;21150;-70
2022/10/07 03:14:15;;;;;;;1.60;1.60;;;;;;;;;;4886563;29;20226;-69
2022/10/07 03:16:41;;;;;;;1.60;1.60;;;;;;;;;;4902630;28;20239;-70
2022/10/07 03:19:08;;;;;;;1.70;1.70;;;;;;;;;;4893947;29;20237;-70
2022/10/07 03:21:34;;;;;;;1.60;1.60;;;;;;;;;;4893607;28;20324;-69
2022/10/07 03:24:03;;;;;;;2.07;1.97;;;;;;;;;;4902024;28;20225;-69
2022/10/07 03:26:30;;;;;;;1.90;1.80;;;;;;;;;;4878263;29;20224;-70
2022/10/07 03:28:56;;;;;;;1.50;1.50;;;;;;;;;;4894248;29;20317;-70
2022/10/07 03:31:22;;;;;;;1.50;1.50;;;;;;;;;;4892260;28;20260;-70
2022/10/07 03:33:48;;;;;;;1.87;1.77;;;;;;;;;;4885345;29;20232;-70
2022/10/07 03:36:14;;;;;;;1.40;1.40;;;;;;;;;;4877374;29;20241;-69
2022/10/07 03:38:39;;;;;;;1.60;1.60;;;;;;;;;;4886331;29;20225;-69
2022/10/07 03:41:05;;;;;;;1.50;1.50;;;;;;;;;;4888341;28;20288;-69
2022/10/07 03:43:32;;;;;;;1.33;1.33;;;;;;;;;;4889475;28;20225;-70
2022/10/07 03:46:01;;;;;;;1.40;1.40;;;;;;;;;;4892780;28;20726;-69
2022/10/07 03:48:26;;;;;;;1.30;1.30;;;;;;;;;;4889957;28;20307;-69
2022/10/07 03:50:53;;;;;;;1.93;1.83;;;;;;;;;;4888794;28;20599;-69
2022/10/07 03:53:20;;;;;;;1.90;1.80;;;;;;;;;;4875327;29;20239;-70
2022/10/07 03:55:46;;;;;;;1.80;1.70;;;;;;;;;;4894283;29;20271;-69
2022/10/07 03:58:11;;;;;;;1.73;1.70;;;;;;;;;;4887982;29;20367;-69
2022/10/07 04:00:37;;;;;;;1.80;1.70;;;;;;;;;;4883800;29;20241;-70
2022/10/07 04:03:04;;;;;;;1.50;1.50;;;;;;;;;;4878671;29;20996;-69
2022/10/07 04:05:30;;;;;;;1.40;1.40;;;;;;;;;;4889049;28;20327;-70
2022/10/07 04:07:57;;;;;;;1.93;1.83;;;;;;;;;;4892139;28;20328;-69
2022/10/07 04:10:23;;;;;;;1.97;1.87;;;;;;;;;;4877114;29;20782;-69
2022/10/07 04:12:50;;;;;;;1.90;1.80;;;;;;;;;;4888312;28;20737;-69
2022/10/07 04:15:16;;;;;;;1.60;1.60;;;;;;;;;;4884163;28;20698;-69
2022/10/07 04:17:42;;;;;;;1.90;1.80;;;;;;;;;;4851925;29;20236;-69
2022/10/07 04:20:08;;;;;;;1.50;1.50;;;;;;;;;;4894697;29;20784;-70
2022/10/07 04:22:35;;;;;;;1.50;1.50;;;;;;;;;;4874344;29;20230;-69
2022/10/07 04:27:51;;;;;;;1.13;1.13;;;;;;;;;;4889809;28;20614;-69
2022/10/07 04:30:17;;;;;;;1.40;1.40;;;;;;;;;;4890631;28;20327;-68
2022/10/07 04:32:43;;;;;;;2.00;1.90;;;;;;;;;;4887179;28;20306;-69
2022/10/07 04:35:09;;;;;;;2.00;1.90;;;;;;;;;;4884038;28;20235;-69
2022/10/07 04:37:34;;;;;;;2.10;2.00;;;;;;;;;;4888128;28;20225;-69
2022/10/07 04:40:00;;;;;;;1.90;1.80;;;;;;;;;;4881095;28;20234;-69
2022/10/07 04:45:11;;;;;;;1.60;1.60;;;;;;;;;;4871999;28;20236;-69
2022/10/07 04:47:37;;;;;;;1.70;1.70;;;;;;;;;;4879437;29;20233;-69
2022/10/07 04:50:03;;;;;;;1.80;1.70;;;;;;;;;;4898147;28;20247;-68
2022/10/07 04:52:29;;;;;;;2.10;2.00;;;;;;;;;;4887796;28;20712;-69
2022/10/07 04:54:55;;;;;;;1.60;1.60;;;;;;;;;;4894329;29;20222;-69
2022/10/07 04:57:21;;;;;;;1.87;1.77;;;;;;;;;;4876274;29;20830;-69
2022/10/07 04:59:47;;;;;;;1.97;1.87;;;;;;;;;;4888886;29;20317;-69
2022/10/07 05:02:13;;;;;;;1.90;1.80;;;;;;;;;;4867936;28;20309;-69
2022/10/07 05:04:39;;;;;;;1.73;1.70;;;;;;;;;;4882304;28;20354;-68
2022/10/07 05:07:05;;;;;;;1.67;1.67;;;;;;;;;;4882825;29;20319;-69
2022/10/07 05:09:31;;;;;;;1.50;1.50;;;;;;;;;;4884322;29;20549;-69
2022/10/07 05:11:57;;;;;;;1.40;1.40;;;;;;;;;;4889403;29;20236;-68
2022/10/07 05:14:23;;;;;;;1.30;1.30;;;;;;;;;;4878645;28;20315;-69
2022/10/07 05:16:49;;;;;;;1.40;1.40;;;;;;;;;;4884322;29;20248;-69
2022/10/07 05:19:15;;;;;;;1.30;1.30;;;;;;;;;;4869886;29;20264;-69
2022/10/07 05:21:41;;;;;;;1.10;1.10;;;;;;;;;;4883996;28;20986;-69
2022/10/07 05:24:07;;;;;;;0.90;0.90;;;;;;;;;;4880577;28;20312;-69
2022/10/07 05:26:33;;;;;;;1.20;1.20;;;;;;;;;;4877285;28;20344;-69
2022/10/07 05:28:59;;;;;;;1.00;1.00;;;;;;;;;;4882127;28;20230;-69
2022/10/07 05:31:26;;;;;;;0.90;0.90;;;;;;;;;;4875347;28;20235;-69
2022/10/07 05:33:52;;;;;;;1.10;1.10;;;;;;;;;;4870100;28;20703;-69
2022/10/07 05:36:21;;;;;;;1.10;1.10;;;;;;;;;;4866679;28;20324;-69
2022/10/07 05:38:47;;;;;;;0.90;0.90;;;;;;;;;;4870824;29;20254;-69
2022/10/07 05:41:12;;;;;;;1.00;1.00;;;;;;;;;;4873014;29;20234;-70
2022/10/07 05:43:41;;;;;;;1.00;1.00;;;;;;;;;;4881058;28;20869;-68
2022/10/07 05:46:10;;;;;;;1.57;1.57;;;;;;;;;;4871148;28;20236;-70
2022/10/07 05:48:36;;;;;;;1.10;1.10;;;;;;;;;;4879611;29;20240;-67
2022/10/07 05:51:02;;;;;;;1.10;1.10;;;;;;;;;;4887689;29;20234;-67
2022/10/07 05:53:28;;;;;;;1.40;1.40;;;;;;;;;;4888147;29;20212;-66
2022/10/07 05:55:54;;;;;;;1.60;1.60;;;;;;;;;;4881888;29;20352;-67
2022/10/07 05:58:21;;;;;;;1.50;1.50;;;;;;;;;;4893258;29;20234;-68
2022/10/07 06:00:52;;;;;;;1.50;1.50;;;;;;;;;;4892104;29;20270;-68
2022/10/07 06:03:18;;;;;;;1.87;1.77;;;;;;;;;;4884800;29;20233;-68
2022/10/07 06:05:45;;;;;;;1.87;1.77;;;;;;;;;;4879492;29;20236;-67
2022/10/07 06:08:11;;;;;;;2.10;2.00;;;;;;;;;;4882175;29;20233;-68
2022/10/07 06:13:22;;;;;;;1.70;1.70;;;;;;;;;;4881758;28;20863;-66
2022/10/07 06:15:48;;;;;;;1.70;1.70;;;;;;;;;;4882946;28;20272;-66
2022/10/07 06:18:14;;;;;;;1.50;1.50;;;;;;;;;;4872915;29;21173;-66
2022/10/07 06:20:40;;;;;;;1.60;1.60;;;;;;;;;;4890828;28;20228;-67
2022/10/07 06:23:06;;;;;;;1.90;1.80;;;;;;;;;;4892010;29;20313;-66
2022/10/07 06:25:33;;;;;;;1.73;1.70;;;;;;;;;;4894880;29;20232;-67
2022/10/07 06:28:00;;;;;;;1.77;1.67;;;;;;;;;;4904530;29;20303;-65
2022/10/07 06:30:26;;;;;;;1.60;1.60;;;;;;;;;;4898080;28;20262;-68
2022/10/07 06:32:52;;;;;;;2.00;1.90;;;;;;;;;;4888012;28;20324;-70
2022/10/07 06:35:18;;;;;;;1.80;1.70;;;;;;;;;;4877684;28;20217;-71
2022/10/07 06:37:44;;;;;;;1.60;1.60;;;;;;;;;;4882338;28;20309;-69
2022/10/07 06:40:10;;;;;;;1.90;1.80;;;;;;;;;;4872796;28;20239;-69
2022/10/07 06:42:36;;;;;;;1.63;1.63;;;;;;;;;;4876977;29;20232;-71
2022/10/07 06:45:02;;;;;;;1.70;1.70;;;;;;;;;;4879078;28;20282;-70
2022/10/07 06:47:29;;;;;;;1.90;1.80;;;;;;;;;;4878715;28;20233;-70
2022/10/07 06:49:55;;;;;;;1.60;1.60;;;;;;;;;;4876696;28;20239;-70
2022/10/07 06:52:21;;;;;;;1.80;1.70;;;;;;;;;;4872245;29;20229;-69
2022/10/07 06:54:46;;;;;;;1.70;1.70;;;;;;;;;;4890070;28;20254;-70
2022/10/07 06:57:12;;;;;;;1.50;1.50;;;;;;;;;;4869429;29;20241;-70
2022/10/07 06:59:38;;;;;;;1.50;1.50;;;;;;;;;;4888004;28;20236;-66
2022/10/07 07:02:05;;;;;;;1.50;1.50;;;;;;;;;;4880471;28;20228;-69
2022/10/07 07:04:31;;;;;;;1.50;1.50;;;;;;;;;;4881574;29;20224;-70
2022/10/07 07:06:57;;;;;;;1.60;1.60;;;;;;;;;;4884239;28;20326;-68
2022/10/07 07:09:23;;;;;;;1.30;1.30;;;;;;;;;;4891249;28;20258;-67
2022/10/07 07:11:49;;;;;;;1.50;1.50;;;;;;;;;;4905449;28;20229;-67
2022/10/07 07:14:15;;;;;;;1.80;1.70;;;;;;;;;;4895161;28;20253;-68
2022/10/07 07:16:41;;;;;;;1.60;1.60;;;;;;;;;;4886360;29;20751;-68
2022/10/07 07:19:07;;;;;;;1.60;1.60;;;;;;;;;;4902993;28;20229;-69
2022/10/07 07:21:34;;;;;;;1.60;1.60;;;;;;;;;;4889987;28;20879;-68
2022/10/07 07:24:00;;;;;;;1.50;1.50;;;;;;;;;;4903943;28;20229;-70
2022/10/07 07:26:29;;;;;;;1.50;1.50;;;;;;;;;;4884209;28;20228;-70
2022/10/07 07:28:58;;;;;;;1.40;1.40;;;;;;;;;;4893343;28;20265;-70
2022/10/07 07:31:25;;;;;;;1.63;1.63;;;;;;;;;;4880913;29;20311;-70
2022/10/07 07:33:51;;;;;;;1.40;1.40;;;;;;;;;;4871779;28;20754;-69
2022/10/07 07:36:18;;;;;;;1.40;1.40;;;;;;;;;;4894077;28;20602;-70
2022/10/07 07:38:44;;;;;;;1.60;1.60;;;;;;;;;;4885123;29;20258;-70
2022/10/07 07:41:10;;;;;;;1.30;1.30;;;;;;;;;;4874194;28;20344;-69
2022/10/07 07:43:36;;;;;;;1.50;1.50;;;;;;;;;;4870224;29;20880;-70
2022/10/07 07:46:03;;;;;;;1.60;1.60;;;;;;;;;;4873778;28;20226;-69
2022/10/07 07:48:30;;;;;;;1.60;1.60;;;;;;;;;;4877744;28;20231;-69
2022/10/07 07:50:56;;;;;;;1.60;1.60;;;;;;;;;;4869415;29;20294;-69
2022/10/07 07:53:22;;;;;;;1.60;1.60;;;;;;;;;;4896406;28;20240;-69
2022/10/07 07:56:06;;;;;;;1.50;1.50;;;;;;;;;;4883975;28;20886;-69
2022/10/07 07:58:31;;;;;;;1.93;1.83;;;;;;;;;;4866456;28;20233;-70
2022/10/07 08:01:08;;;;;;;1.83;1.73;;;;;;;;;;4870128;28;21529;-69
2022/10/07 08:03:36;;;;;;;1.60;1.60;;;;;;;;;;4882737;28;20224;-69
2022/10/07 08:06:02;;;;;;;2.00;1.90;;;;;;;;;;4875033;28;20248;-70
2022/10/07 08:08:29;;;;;;;1.60;1.60;;;;;;;;;;4890003;28;20263;-70
2022/10/07 08:10:55;;;;;;;1.93;1.83;;;;;;;;;;4892505;29;20261;-70
2022/10/07 08:13:20;;;;;;;1.50;1.50;;;;;;;;;;4895975;28;20252;-69
2022/10/07 08:15:46;;;;;;;1.60;1.60;;;;;;;;;;4897643;28;20654;-70
2022/10/07 08:18:12;;;;;;;1.60;1.60;;;;;;;;;;4887635;28;20252;-70
2022/10/07 08:20:38;;;;;;;1.60;1.60;;;;;;;;;;4900296;28;20341;-70
2022/10/07 08:23:04;;;;;;;1.40;1.40;;;;;;;;;;4892262;29;20269;-71
2022/10/07 08:25:30;;;;;;;1.50;1.50;;;;;;;;;;4880675;29;20244;-70
2022/10/07 08:27:57;;;;;;;1.80;1.70;;;;;;;;;;4893453;28;20244;-69
2022/10/07 08:30:23;;;;;;;1.50;1.50;;;;;;;;;;4903976;28;20248;-70
2022/10/07 08:32:49;;;;;;;1.50;1.50;;;;;;;;;;4878146;29;20243;-69
2022/10/07 08:35:15;;;;;;;1.30;1.30;;;;;;;;;;4889650;29;20243;-69
2022/10/07 08:37:41;;;;;;;1.30;1.30;;;;;;;;;;4898287;29;20233;-69
2022/10/07 08:40:12;;;;;;;1.43;1.43;;;;;;;;;;4881814;29;20593;-69
2022/10/07 08:42:38;;;;;;;1.30;1.30;;;;;;;;;;4873331;29;20249;-69
2022/10/07 08:45:09;;;;;;;1.30;1.30;;;;;;;;;;4892182;29;20590;-70
2022/10/07 08:47:40;;;;;;;1.20;1.20;;;;;;;;;;4888001;29;20713;-69
2022/10/07 08:50:20;;;;;;;1.30;1.30;;;;;;;;;;4896394;29;20241;-70
2022/10/07 08:52:50;;;;;;;1.77;1.70;;;;;;;;;;4888567;29;20247;-70
2022/10/07 08:55:18;;;;;;;1.30;1.30;;;;;;;;;;4883551;29;20255;-69
2022/10/07 08:57:44;;;;;;;1.10;1.10;;;;;;;;;;4886795;29;20235;-70
2022/10/07 09:00:10;;;;;;;0.90;0.90;;;;;;;;;;4901067;28;20236;-70
2022/10/07 09:02:39;;;;;;;0.90;0.90;;;;;;;;;;4894521;28;20229;-70
2022/10/07 09:05:05;;;;;;;0.90;0.90;;;;;;;;;;4894781;29;20604;-70
2022/10/07 09:07:32;;;;;;;0.80;0.80;;;;;;;;;;4882262;29;20221;-70
2022/10/07 09:10:00;;;;;;;0.80;0.80;;;;;;;;;;4896376;28;20297;-70
2022/10/07 09:12:46;;;;;;;0.80;0.80;;;;;;;;;;4902629;28;20227;-69
2022/10/07 09:15:16;;;;;;;0.97;0.97;;;;;;;;;;4904439;28;20264;-69
2022/10/07 09:17:43;;;;;;;0.87;0.87;;;;;;;;;;4904060;28;20220;-70
2022/10/07 09:20:15;;;;;;;1.30;1.30;;;;;;;;;;4897418;28;20224;-69
2022/10/07 09:22:41;;;;;;;1.10;1.10;;;;;;;;;;4886913;28;20241;-70
2022/10/07 09:25:10;;;;;;;1.38;1.38;;;;;;;;;;4898492;28;20233;-70
2022/10/07 09:27:36;;;;;;;1.40;1.40;;;;;;;;;;4894426;28;20258;-70
2022/10/07 09:30:02;;;;;;;1.40;1.40;;;;;;;;;;4891190;29;20843;-70
2022/10/07 09:32:28;;;;;;;1.30;1.30;;;;;;;;;;4884507;28;20479;-70
2022/10/07 09:34:54;;;;;;;1.20;1.20;;;;;;;;;;4900344;29;20238;-70
2022/10/07 09:37:26;;;;;;;1.20;1.20;;;;;;;;;;4900432;29;20368;-70
2022/10/07 09:39:53;;;;;;;1.40;1.40;;;;;;;;;;4892495;28;20711;-70
2022/10/07 09:42:23;;;;;;;1.23;1.23;;;;;;;;;;4891941;28;20246;-70
2022/10/07 09:44:50;;;;;;;1.20;1.20;;;;;;;;;;4900072;28;20227;-70
2022/10/07 09:47:20;;;;;;;1.20;1.20;;;;;;;;;;4904380;28;20221;-70
2022/10/07 09:49:48;;;;;;;1.20;1.20;;;;;;;;;;4895905;28;20255;-69
2022/10/07 09:52:15;;;;;;;1.40;1.40;;;;;;;;;;4895379;28;20236;-70
2022/10/07 09:54:41;;;;;;;1.20;1.20;;;;;;;;;;4894707;28;20232;-70
2022/10/07 09:57:27;;;;;;;1.20;1.20;;;;;;;;;;4888926;28;20225;-69
2022/10/07 10:00:12;;;;;;;1.30;1.30;;;;;;;;;;4893996;28;20589;-70
2022/10/07 10:02:41;;;;;;;1.20;1.20;;;;;;;;;;4895726;28;20232;-70
2022/10/07 10:05:21;;;;;;;0.90;0.90;;;;;;;;;;4902911;28;20729;-70
2022/10/07 10:07:47;;;;;;;1.00;1.00;;;;;;;;;;4878638;29;20278;-70
2022/10/07 10:10:17;;;;;;;0.70;0.70;;;;;;;;;;4894680;28;20260;-70
2022/10/07 10:12:46;;;;;;;0.70;0.70;;;;;;;;;;4885932;29;20246;-70
2022/10/07 10:15:16;;;;;;;0.70;0.70;;;;;;;;;;4866795;29;20221;-70
2022/10/07 10:17:42;;;;;;;0.80;0.80;;;;;;;;;;4875862;28;20330;-70
2022/10/07 10:20:28;;;;;;;1.00;1.00;;;;;;;;;;4896398;28;20235;-70
2022/10/07 10:22:54;;;;;;;0.90;0.90;;;;;;;;;;4890772;29;20225;-70
2022/10/07 10:28:23;;;;;;;0.70;0.70;;;;;;;;;;4895033;28;20715;-70
2022/10/07 10:30:51;;;;;;;0.80;0.80;;;;;;;;;;4895420;29;20229;-70
2022/10/07 10:33:26;;;;;;;1.10;1.10;;;;;;;;;;4876322;29;20226;-70
2022/10/07 10:36:02;;;;;;;0.75;0.75;;;;;;;;;;4905885;28;20232;-70
2022/10/07 10:39:00;;;;;;;0.70;0.70;;;;;;;;;;4882917;29;20721;-70
2022/10/07 10:41:28;;;;;;;0.63;0.63;;;;;;;;;;4898390;29;20648;-70
2022/10/07 10:44:13;;;;;;;0.70;0.70;;;;;;;;;;4888923;29;20227;-70
2022/10/07 10:46:42;;;;;;;0.70;0.70;;;;;;;;;;4895418;29;20231;-70
2022/10/07 10:49:09;;;;;;;0.68;0.68;;;;;;;;;;4901914;28;20271;-70
2022/10/07 10:51:54;;;;;;;0.70;0.70;;;;;;;;;;4901011;29;20260;-70
2022/10/07 10:54:39;;;;;;;0.70;0.70;;;;;;;;;;4901489;28;20267;-70
2022/10/07 10:57:11;;;;;;;0.70;0.70;;;;;;;;;;4895295;28;20232;-70
2022/10/07 10:59:49;;;;;;;0.65;0.65;;;;;;;;;;4891210;29;20239;-70
2022/10/07 11:02:34;;;;;;;0.70;0.70;;;;;;;;;;4899397;28;20665;-70
2022/10/07 11:05:05;;;;;;;0.70;0.70;;;;;;;;;;4906389;28;20247;-70
2022/10/07 11:07:35;;;;;;;0.70;0.70;;;;;;;;;;4900559;28;20229;-70
2022/10/07 11:10:03;;;;;;;0.70;0.70;;;;;;;;;;4889886;28;21038;-70
2022/10/07 11:12:30;;;;;;;0.70;0.70;;;;;;;;;;4875956;28;20724;-70
2022/10/07 11:14:58;;;;;;;0.70;0.70;;;;;;;;;;4899314;28;20319;-70
2022/10/07 11:17:26;;;;;;;0.70;0.70;;;;;;;;;;4891146;29;20251;-70
2022/10/07 11:19:55;;;;;;;0.70;0.70;;;;;;;;;;4896216;28;20248;-70
2022/10/07 11:22:24;;;;;;;0.60;0.60;;;;;;;;;;4890862;29;20709;-70
2022/10/07 11:24:53;;;;;;;0.60;0.60;;;;;;;;;;4890620;28;20252;-70
2022/10/07 11:27:29;;;;;;;0.70;0.70;;;;;;;;;;4905264;28;20228;-70
2022/10/07 11:30:00;;;;;;;0.70;0.70;;;;;;;;;;4895887;28;20229;-70
2022/10/07 11:33:05;;;;;;;0.70;0.70;;;;;;;;;;4902012;28;20234;-70
2022/10/07 11:35:34;;;;;;;0.70;0.70;;;;;;;;;;4874307;29;20235;-70
2022/10/07 11:38:06;;;;;;;0.70;0.70;;;;;;;;;;4868943;28;20359;-70
2022/10/07 11:40:33;;;;;;;0.70;0.70;;;;;;;;;;4865121;29;20284;-70
2022/10/07 11:43:03;;;;;;;0.80;0.80;;;;;;;;;;4900792;29;20989;-70
2022/10/07 11:45:32;;;;;;;0.70;0.70;;;;;;;;;;4896206;29;20220;-70
2022/10/07 11:47:59;;;;;;;0.70;0.70;;;;;;;;;;4899459;28;20235;-69
2022/10/07 11:50:26;;;;;;;0.70;0.70;;;;;;;;;;4895052;28;20240;-70
2022/10/07 11:52:53;;;;;;;0.70;0.70;;;;;;;;;;4896054;28;20233;-70
2022/10/07 11:55:21;;;;;;;0.70;0.70;;;;;;;;;;4884933;28;20228;-70
2022/10/07 11:57:53;;;;;;;0.65;0.65;;;;;;;;;;4890955;28;20227;-70
2022/10/07 12:00:26;;;;;;;0.80;0.80;;;;;;;;;;4889670;28;20230;-70
2022/10/07 12:02:55;;;;;;;0.77;0.77;;;;;;;;;;4889250;28;20229;-70
2022/10/07 12:05:33;;;;;;;0.60;0.60;;;;;;;;;;4886555;28;20250;-70
2022/10/07 12:08:17;;;;;;;0.60;0.60;;;;;;;;;;4890578;28;20220;-70
2022/10/07 12:10:43;;;;;;;0.60;0.60;;;;;;;;;;4895426;29;20322;-70
2022/10/07 12:13:12;;;;;;;0.60;0.60;;;;;;;;;;4893450;29;20303;-70
2022/10/07 12:15:43;;;;;;;0.60;0.60;;;;;;;;;;4904819;29;20232;-70
2022/10/07 12:18:09;;;;;;;0.68;0.68;;;;;;;;;;4886529;28;20229;-70
2022/10/07 12:20:54;;;;;;;0.70;0.70;;;;;;;;;;4893547;29;20241;-70
2022/10/07 12:23:27;;;;;;;0.70;0.70;;;;;;;;;;4882807;28;20339;-70
2022/10/07 12:26:02;;;;;;;0.63;0.63;;;;;;;;;;4893174;29;20222;-70
2022/10/07 12:28:35;;;;;;;0.63;0.63;;;;;;;;;;4891238;28;20222;-70
2022/10/07 12:31:02;;;;;;;1.00;1.00;;;;;;;;;;4897054;29;20232;-70
2022/10/07 12:33:29;;;;;;;0.70;0.70;;;;;;;;;;4878389;28;20229;-70
2022/10/07 12:35:54;;;;;;;0.70;0.70;;;;;;;;;;4893838;28;20635;-70
2022/10/07 12:38:25;;;;;;;0.70;0.70;;;;;;;;;;4891799;28;20228;-70
2022/10/07 12:41:17;;;;;;;0.63;0.63;;;;;;;;;;4884828;28;20224;-70
2022/10/07 12:43:44;;;;;;;0.70;0.70;;;;;;;;;;4879199;29;20248;-70
2022/10/07 12:46:10;;;;;;;0.70;0.70;;;;;;;;;;4891269;28;20232;-70
2022/10/07 12:48:41;;;;;;;0.82;0.82;;;;;;;;;;4853136;29;21770;-70
2022/10/07 12:51:11;;;;;;;0.90;0.90;;;;;;;;;;4851457;29;20703;-70
2022/10/07 12:53:40;;;;;;;0.90;0.90;;;;;;;;;;4878108;29;20317;-69
2022/10/07 12:56:06;;;;;;;0.90;0.90;;;;;;;;;;4877005;29;20223;-66
2022/10/07 13:01:28;;;;;;;0.70;0.70;;;;;;;;;;4872447;28;20281;-66
2022/10/07 13:04:00;;;;;;;0.70;0.70;;;;;;;;;;4862225;29;20229;-66
2022/10/07 13:06:29;;;;;;;0.60;0.60;;;;;;;;;;4888043;28;20249;-65
2022/10/07 13:09:09;;;;;;;0.70;0.70;;;;;;;;;;4876995;29;20232;-65
2022/10/07 13:11:43;;;;;;;0.70;0.70;;;;;;;;;;4874087;28;20229;-66
2022/10/07 13:14:12;;;;;;;0.73;0.73;;;;;;;;;;4888965;28;20224;-65
2022/10/07 13:16:57;;;;;;;0.70;0.70;;;;;;;;;;4882145;28;20229;-66
2022/10/07 13:19:30;;;;;;;0.70;0.70;;;;;;;;;;4873527;29;20227;-66
2022/10/07 13:21:56;;;;;;;0.77;0.77;;;;;;;;;;4847887;29;20240;-68
2022/10/07 13:24:23;;;;;;;0.75;0.75;;;;;;;;;;4866626;29;20221;-64
2022/10/07 13:26:49;;;;;;;0.80;0.80;;;;;;;;;;4854668;29;21144;-62
2022/10/07 13:29:22;;;;;;;0.80;0.80;;;;;;;;;;4873885;28;20240;-64
2022/10/07 13:32:05;;;;;;;0.80;0.80;;;;;;;;;;4887744;29;20668;-66
2022/10/07 13:34:31;;;;;;;0.80;0.80;;;;;;;;;;4862389;29;20411;-66
2022/10/07 13:36:57;;;;;;;0.80;0.80;;;;;;;;;;4856081;29;20224;-65
2022/10/07 13:39:23;;;;;;;0.80;0.80;;;;;;;;;;4888317;29;20216;-65
2022/10/07 13:41:54;;;;;;;0.80;0.80;;;;;;;;;;4878648;29;20229;-67
2022/10/07 13:44:20;;;;;;;0.80;0.80;;;;;;;;;;4870283;29;20205;-67
2022/10/07 13:46:56;;;;;;;0.80;0.80;;;;;;;;;;4877066;29;20233;-65
2022/10/07 13:49:25;;;;;;;0.80;0.80;;;;;;;;;;4861843;29;20706;-67
2022/10/07 13:51:51;;;;;;;0.90;0.90;;;;;;;;;;4872390;29;20692;-67
2022/10/07 13:54:23;;;;;;;0.80;0.80;;;;;;;;;;4872655;29;20228;-68
2022/10/07 13:56:49;;;;;;;0.80;0.80;;;;;;;;;;4867678;29;20193;-65
2022/10/07 13:59:16;;;;;;;0.90;0.90;;;;;;;;;;4875691;29;20713;-66
2022/10/07 14:01:43;;;;;;;0.88;0.88;;;;;;;;;;4879721;29;20253;-69
2022/10/07 14:04:19;;;;;;;0.80;0.80;;;;;;;;;;4875447;29;20268;-65
2022/10/07 14:06:55;;;;;;;0.80;0.80;;;;;;;;;;4884455;29;20667;-65
2022/10/07 14:09:25;;;;;;;0.80;0.80;;;;;;;;;;4873874;29;20224;-65
2022/10/07 14:11:57;;;;;;;0.90;0.90;;;;;;;;;;4877076;29;20228;-66
2022/10/07 14:14:31;;;;;;;0.80;0.80;;;;;;;;;;4870800;29;20216;-67
2022/10/07 14:17:00;;;;;;;0.90;0.90;;;;;;;;;;4875754;29;20312;-67
2022/10/07 14:19:29;;;;;;;0.80;0.80;;;;;;;;;;4889838;29;20221;-68
2022/10/07 14:21:55;;;;;;;0.82;0.82;;;;;;;;;;4890153;29;20217;-65
2022/10/07 14:24:20;;;;;;;0.90;0.90;;;;;;;;;;4889586;29;20220;-66
2022/10/07 14:26:46;;;;;;;0.82;0.82;;;;;;;;;;4880395;29;20816;-66
2022/10/07 14:29:22;;;;;;;1.00;1.00;;;;;;;;;;4881312;29;20217;-67
2022/10/07 14:37:29;;;;;;;0.90;0.90;;;;;;;;;;4880391;29;20232;-64
2022/10/07 14:39:55;;;;;;;0.90;0.90;;;;;;;;;;4884645;29;20236;-65
2022/10/07 14:42:29;;;;;;;0.90;0.90;;;;;;;;;;4877555;29;20996;-65
2022/10/07 14:44:55;;;;;;;0.88;0.88;;;;;;;;;;4878305;29;20586;-66
2022/10/07 14:47:23;;;;;;;0.90;0.90;;;;;;;;;;4884291;29;20670;-65
2022/10/07 14:49:52;;;;;;;0.80;0.80;;;;;;;;;;4878737;29;21620;-68
2022/10/07 14:52:35;;;;;;;0.80;0.80;;;;;;;;;;4879079;29;20594;-67
2022/10/07 14:55:05;;;;;;;1.00;1.00;;;;;;;;;;4873848;29;20597;-68
2022/10/07 14:57:31;;;;;;;0.80;0.80;;;;;;;;;;4886267;29;20236;-68
2022/10/07 14:59:57;;;;;;;0.90;0.90;;;;;;;;;;4871973;29;20220;-67
2022/10/07 15:02:23;;;;;;;1.10;1.10;;;;;;;;;;4878140;29;20688;-68
2022/10/07 15:04:49;;;;;;;1.00;1.00;;;;;;;;;;4876346;29;20729;-67
2022/10/07 15:07:15;;;;;;;0.80;0.80;;;;;;;;;;4894673;29;20440;-68
2022/10/07 15:09:41;;;;;;;0.90;0.90;;;;;;;;;;4906540;29;20201;-65
2022/10/07 15:12:07;;;;;;;0.80;0.80;;;;;;;;;;4890510;28;21192;-67
2022/10/07 15:14:33;;;;;;;0.98;0.98;;;;;;;;;;4871379;29;20327;-66